createdAt,value
2023-05-14T00:00:55.378Z,231.07
2023-05-14T00:03:24.002Z,224.90
2023-05-14T00:05:51.666Z,216.07
2023-05-14T00:08:17.978Z,226.93
2023-05-14T00:10:46.866Z,209.57
2023-05-14T00:13:13.193Z,213.77
2023-05-14T00:15:39.460Z,210.73
2023-05-14T00:18:05.790Z,211.65
2023-05-14T00:20:32.077Z,206.20
2023-05-14T00:22:58.380Z,202.73
2023-05-14T00:25:24.781Z,209.40
2023-05-14T00:27:53.122Z,206.75
2023-05-14T00:30:25.085Z,191.57
2023-05-14T00:32:51.531Z,201.38
2023-05-14T00:35:21.060Z,185.85
2023-05-14T00:37:48.932Z,189.27
2023-05-14T00:40:17.354Z,184.43
2023-05-14T00:42:45.967Z,193.65
2023-05-14T00:45:15.170Z,172.45
2023-05-14T00:47:42.772Z,172.20
2023-05-14T00:50:09.497Z,176.98
2023-05-14T00:52:38.914Z,164.68
2023-05-14T00:55:05.168Z,171.88
2023-05-14T00:57:35.114Z,163.05
2023-05-14T01:00:01.388Z,165.20
2023-05-14T01:02:30.637Z,166.15
2023-05-14T01:04:57.012Z,158.77
2023-05-14T01:07:28.062Z,160.75
2023-05-14T01:09:54.434Z,159.15
2023-05-14T01:12:20.690Z,156.55
2023-05-14T01:14:46.915Z,159.07
2023-05-14T01:17:13.149Z,150.25
2023-05-14T01:19:41.539Z,149.45
2023-05-14T01:22:09.769Z,142.48
2023-05-14T01:24:36.047Z,146.45
2023-05-14T01:27:02.366Z,143.63
2023-05-14T01:29:28.611Z,139.55
2023-05-14T01:31:54.909Z,141.30
2023-05-14T01:34:21.150Z,137.43
2023-05-14T01:36:49.243Z,136.77
2023-05-14T01:39:17.769Z,137.50
2023-05-14T01:41:46.370Z,133.43
2023-05-14T01:44:15.082Z,135.48
2023-05-14T01:46:41.366Z,132.15
2023-05-14T01:49:07.658Z,133.40
2023-05-14T01:51:33.898Z,133.60
2023-05-14T01:54:05.128Z,126.97
2023-05-14T01:56:34.170Z,127.28
2023-05-14T01:59:00.770Z,125.28
2023-05-14T02:01:27.068Z,128.38
2023-05-14T02:03:53.614Z,128.65
2023-05-14T02:06:19.952Z,121.95
2023-05-14T02:08:46.199Z,121.85
2023-05-14T02:11:16.756Z,124.95
2023-05-14T02:13:43.189Z,119.55
2023-05-14T02:16:10.743Z,120.00
2023-05-14T02:18:37.419Z,113.60
2023-05-14T02:21:04.790Z,111.93
2023-05-14T02:23:41.010Z,110.32
2023-05-14T02:26:09.600Z,114.90
2023-05-14T02:28:35.954Z,112.15
2023-05-14T02:31:02.248Z,112.88
2023-05-14T02:33:28.674Z,108.78
2023-05-14T02:35:55.141Z,107.05
2023-05-14T02:38:21.840Z,105.75
2023-05-14T02:40:48.082Z,103.60
2023-05-14T02:43:16.502Z,102.03
2023-05-14T02:45:42.792Z,100.47
2023-05-14T02:48:09.121Z,99.47
2023-05-14T02:50:37.292Z,100.38
2023-05-14T02:53:05.532Z,98.78
2023-05-14T02:55:35.758Z,96.00
2023-05-14T02:58:01.987Z,98.78
2023-05-14T03:00:29.933Z,97.22
2023-05-14T03:05:40.941Z,93.93
2023-05-14T03:08:07.178Z,92.75
2023-05-14T03:10:33.431Z,92.25
2023-05-14T03:13:04.638Z,89.50
2023-05-14T03:15:30.844Z,89.93
2023-05-14T03:17:57.138Z,91.15
2023-05-14T03:20:23.614Z,89.43
2023-05-14T03:22:49.967Z,87.05
2023-05-14T03:25:16.318Z,83.22
2023-05-14T03:27:42.545Z,84.75
2023-05-14T03:30:08.820Z,83.53
2023-05-14T03:32:35.177Z,82.13
2023-05-14T03:35:02.394Z,80.82
2023-05-14T03:37:30.751Z,79.50
2023-05-14T03:39:57.448Z,77.50
2023-05-14T03:42:23.696Z,75.55
2023-05-14T03:44:51.114Z,75.97
2023-05-14T03:47:17.373Z,73.60
2023-05-14T03:49:43.651Z,71.43
2023-05-14T03:52:10.104Z,71.93
2023-05-14T03:54:36.545Z,71.90
2023-05-14T03:57:02.780Z,72.82
2023-05-14T03:59:33.819Z,73.43
2023-05-14T04:02:00.035Z,70.28
2023-05-14T04:04:29.582Z,68.00
2023-05-14T04:06:55.937Z,69.18
2023-05-14T04:09:22.197Z,66.28
2023-05-14T04:11:48.428Z,69.47
2023-05-14T04:14:16.875Z,69.05
2023-05-14T04:16:44.578Z,64.75
2023-05-14T04:19:11.049Z,65.25
2023-05-14T04:21:37.387Z,63.88
2023-05-14T04:24:03.639Z,62.72
2023-05-14T04:26:30.462Z,64.80
2023-05-14T04:28:56.667Z,60.35
2023-05-14T04:31:26.485Z,62.00
2023-05-14T04:33:52.758Z,61.13
2023-05-14T04:36:19.054Z,59.67
2023-05-14T04:38:45.327Z,61.15
2023-05-14T04:41:11.929Z,59.55
2023-05-14T04:43:40.547Z,60.08
2023-05-14T04:46:07.302Z,58.55
2023-05-14T04:48:33.559Z,58.67
2023-05-14T04:51:06.830Z,58.50
2023-05-14T04:53:33.453Z,58.60
2023-05-14T04:55:59.745Z,57.90
2023-05-14T04:58:25.971Z,54.33
2023-05-14T05:00:52.254Z,56.78
2023-05-14T05:03:18.629Z,54.90
2023-05-14T05:05:44.946Z,54.05
2023-05-14T05:08:11.158Z,52.05
2023-05-14T05:10:37.435Z,52.42
2023-05-14T05:13:03.699Z,52.15
2023-05-14T05:15:29.918Z,52.22
2023-05-14T05:17:56.663Z,49.47
2023-05-14T05:20:23.099Z,50.35
2023-05-14T05:22:54.126Z,50.65
2023-05-14T05:25:20.341Z,50.63
2023-05-14T05:27:46.666Z,50.83
2023-05-14T05:30:13.783Z,48.92
2023-05-14T05:32:40.641Z,50.03
2023-05-14T05:35:08.087Z,72.43
2023-05-14T05:37:34.338Z,47.75
2023-05-14T05:40:00.598Z,38.88
2023-05-14T05:42:26.913Z,34.00
2023-05-14T05:44:53.141Z,24.98
2023-05-14T05:47:20.073Z,23.25
2023-05-14T05:49:47.639Z,20.63
2023-05-14T05:52:14.237Z,17.60
2023-05-14T05:54:44.919Z,15.30
2023-05-14T05:57:13.727Z,14.77
2023-05-14T05:59:39.993Z,30.02
2023-05-14T06:02:06.252Z,36.28
2023-05-14T06:04:32.531Z,30.23
2023-05-14T06:06:58.768Z,25.08
2023-05-14T06:09:26.760Z,24.20
2023-05-14T06:11:53.250Z,23.33
2023-05-14T06:14:19.520Z,20.10
2023-05-14T06:16:46.111Z,18.98
2023-05-14T06:19:16.041Z,16.63
2023-05-14T06:21:46.882Z,15.98
2023-05-14T06:24:16.658Z,13.43
2023-05-14T06:26:42.934Z,13.68
2023-05-14T06:29:09.195Z,12.95
2023-05-14T06:31:35.594Z,133.18
2023-05-14T06:34:01.979Z,153.15
2023-05-14T06:36:28.190Z,38.33
2023-05-14T06:38:54.466Z,30.55
2023-05-14T06:41:23.063Z,23.73
2023-05-14T06:43:49.475Z,22.50
2023-05-14T06:46:15.712Z,19.23
2023-05-14T06:48:42.008Z,20.83
2023-05-14T06:51:09.792Z,22.73
2023-05-14T06:53:36.043Z,20.30
2023-05-14T06:56:02.315Z,19.23
2023-05-14T06:58:29.802Z,24.48
2023-05-14T07:00:56.037Z,21.08
2023-05-14T07:03:22.300Z,22.80
2023-05-14T07:05:48.523Z,25.52
2023-05-14T07:08:14.732Z,30.15
2023-05-14T07:10:43.313Z,45.90
2023-05-14T07:13:12.351Z,71.05
2023-05-14T07:15:38.597Z,85.18
2023-05-14T07:18:04.849Z,78.55
2023-05-14T07:20:31.145Z,82.93
2023-05-14T07:22:57.398Z,84.28
2023-05-14T07:25:23.635Z,91.05
2023-05-14T07:27:49.864Z,116.53
2023-05-14T07:30:16.159Z,104.07
2023-05-14T07:32:42.906Z,108.85
2023-05-14T07:35:12.385Z,103.20
2023-05-14T07:37:38.613Z,91.05
2023-05-14T07:40:04.833Z,80.68
2023-05-14T07:42:36.396Z,82.57
2023-05-14T07:45:04.287Z,93.00
2023-05-14T07:47:30.765Z,80.85
2023-05-14T07:49:57.914Z,88.15
2023-05-14T07:52:24.153Z,76.35
2023-05-14T07:54:50.767Z,72.97
2023-05-14T07:57:17.110Z,75.15
2023-05-14T07:59:43.411Z,79.85
2023-05-14T08:02:09.717Z,77.65
2023-05-14T08:04:38.132Z,72.40
2023-05-14T08:07:05.119Z,62.78
2023-05-14T08:09:31.323Z,71.30
2023-05-14T08:11:58.127Z,62.08
2023-05-14T08:14:24.317Z,57.05
2023-05-14T08:16:50.612Z,59.67
2023-05-14T08:19:17.775Z,54.03
2023-05-14T08:21:44.086Z,55.70
2023-05-14T08:24:10.302Z,51.33
2023-05-14T08:26:36.562Z,56.63
2023-05-14T08:29:05.419Z,54.58
2023-05-14T08:31:31.957Z,51.05
2023-05-14T08:33:58.253Z,55.08
2023-05-14T08:36:24.470Z,50.67
2023-05-14T08:38:50.698Z,49.65
2023-05-14T08:41:16.942Z,49.38
2023-05-14T08:43:45.392Z,50.25
2023-05-14T08:46:11.649Z,54.47
2023-05-14T08:48:40.299Z,48.70
2023-05-14T08:51:06.565Z,56.70
2023-05-14T08:53:32.837Z,56.22
2023-05-14T08:56:00.037Z,54.45
2023-05-14T08:58:27.886Z,47.92
2023-05-14T09:00:54.111Z,51.17
2023-05-14T09:05:50.850Z,51.53
2023-05-14T09:08:18.086Z,52.53
2023-05-14T09:10:47.990Z,50.63
2023-05-14T09:13:14.198Z,45.40
2023-05-14T09:15:40.837Z,39.50
2023-05-14T09:18:07.191Z,39.28
2023-05-14T09:20:34.203Z,38.25
2023-05-14T09:23:00.455Z,35.85
2023-05-14T09:25:26.880Z,36.58
2023-05-14T09:27:53.068Z,35.25
2023-05-14T09:30:21.000Z,38.55
2023-05-14T09:32:47.584Z,33.45
2023-05-14T09:35:16.338Z,33.17
2023-05-14T09:37:42.591Z,32.75
2023-05-14T09:40:08.802Z,30.27
2023-05-14T09:42:36.993Z,28.05
2023-05-14T09:45:04.324Z,27.08
2023-05-14T09:47:30.605Z,24.30
2023-05-14T09:49:56.868Z,26.40
2023-05-14T09:52:25.324Z,24.65
2023-05-14T09:54:52.173Z,23.02
2023-05-14T09:57:18.399Z,22.65
2023-05-14T09:59:44.611Z,21.60
2023-05-14T10:02:11.625Z,19.98
2023-05-14T10:04:38.013Z,19.02
2023-05-14T10:07:04.553Z,19.27
2023-05-14T10:09:30.792Z,18.92
2023-05-14T10:11:57.070Z,17.52
2023-05-14T10:14:23.334Z,16.70
2023-05-14T10:16:49.601Z,15.73
2023-05-14T10:19:15.903Z,16.25
2023-05-14T10:21:42.148Z,14.98
2023-05-14T10:24:08.391Z,15.15
2023-05-14T10:26:34.641Z,14.27
2023-05-14T10:29:00.841Z,14.13
2023-05-14T10:31:27.144Z,13.45
2023-05-14T10:33:53.475Z,12.90
2023-05-14T10:36:19.762Z,13.82
2023-05-14T10:38:45.957Z,13.30
2023-05-14T10:41:12.192Z,14.30
2023-05-14T10:43:38.455Z,12.43
2023-05-14T10:46:08.043Z,10.93
2023-05-14T10:48:34.283Z,10.95
2023-05-14T10:51:00.513Z,10.73
2023-05-14T10:53:28.338Z,10.48
2023-05-14T10:55:54.557Z,10.13
2023-05-14T10:58:21.549Z,9.80
2023-05-14T11:00:47.800Z,10.02
2023-05-14T11:03:14.060Z,10.00
2023-05-14T11:05:40.283Z,9.68
2023-05-14T11:08:06.515Z,9.07
2023-05-14T11:10:33.780Z,9.10
2023-05-14T11:13:02.424Z,8.95
2023-05-14T11:15:28.629Z,8.15
2023-05-14T11:17:54.891Z,9.80
2023-05-14T11:20:21.118Z,9.32
2023-05-14T11:22:50.971Z,8.90
2023-05-14T11:25:17.309Z,8.60
2023-05-14T11:27:44.616Z,8.30
2023-05-14T11:30:10.889Z,7.93
2023-05-14T11:32:42.092Z,9.05
2023-05-14T11:35:08.324Z,9.60
2023-05-14T11:37:34.598Z,9.68
2023-05-14T11:40:00.846Z,9.13
2023-05-14T11:42:27.093Z,8.85
2023-05-14T11:44:53.375Z,8.80
2023-05-14T11:47:19.597Z,8.98
2023-05-14T11:49:45.866Z,9.20
2023-05-14T11:52:12.139Z,8.70
2023-05-14T11:54:38.395Z,9.23
2023-05-14T11:57:04.605Z,8.07
2023-05-14T11:59:30.827Z,8.57
2023-05-14T12:01:58.237Z,8.45
2023-05-14T12:04:24.496Z,8.75
2023-05-14T12:06:50.723Z,8.60
2023-05-14T12:11:47.306Z,7.63
2023-05-14T12:14:15.279Z,8.20
2023-05-14T12:16:41.646Z,7.35
2023-05-14T12:19:12.470Z,7.35
2023-05-14T12:21:38.730Z,7.28
2023-05-14T12:24:05.656Z,7.50
2023-05-14T12:26:31.935Z,7.30
2023-05-14T12:28:59.647Z,7.57
2023-05-14T12:31:26.272Z,7.03
2023-05-14T12:33:52.489Z,6.90
2023-05-14T12:36:21.906Z,7.75
2023-05-14T12:38:48.736Z,7.45
2023-05-14T12:41:15.463Z,7.32
2023-05-14T12:43:43.254Z,7.00
2023-05-14T12:46:09.486Z,6.97
2023-05-14T12:48:35.766Z,6.78
2023-05-14T12:51:02.963Z,6.35
2023-05-14T12:53:29.198Z,6.32
2023-05-14T12:55:55.442Z,6.25
2023-05-14T12:58:21.690Z,6.93
2023-05-14T13:00:48.044Z,6.50
2023-05-14T13:03:14.339Z,7.00
2023-05-14T13:05:40.609Z,6.63
2023-05-14T13:08:08.222Z,6.70
2023-05-14T13:10:34.441Z,6.95
2023-05-14T13:13:00.701Z,6.15
2023-05-14T13:15:26.994Z,6.00
2023-05-14T13:17:53.235Z,6.03
2023-05-14T13:20:19.485Z,6.15
2023-05-14T13:22:48.354Z,5.80
2023-05-14T13:25:14.615Z,5.85
2023-05-14T13:27:40.868Z,6.30
2023-05-14T13:30:07.072Z,6.50
2023-05-14T13:32:33.368Z,6.50
2023-05-14T13:34:59.655Z,6.18
2023-05-14T13:37:25.905Z,6.47
2023-05-14T13:39:52.130Z,5.50
2023-05-14T13:42:18.359Z,6.85
2023-05-14T13:44:45.901Z,5.72
2023-05-14T13:47:12.124Z,5.72
2023-05-14T13:49:38.390Z,5.95
2023-05-14T13:52:05.960Z,5.18
2023-05-14T13:54:32.165Z,5.45
2023-05-14T13:56:58.401Z,5.10
2023-05-14T13:59:24.727Z,6.00
2023-05-14T14:01:51.017Z,5.68
2023-05-14T14:04:17.267Z,5.72
2023-05-14T14:06:44.150Z,6.25
2023-05-14T14:09:10.402Z,5.45
2023-05-14T14:11:36.671Z,5.53
2023-05-14T14:14:02.899Z,5.45
2023-05-14T14:16:29.147Z,5.28
2023-05-14T14:18:58.586Z,200.15
2023-05-14T14:21:24.997Z,129.18
2023-05-14T14:23:53.594Z,220.20
2023-05-14T14:26:23.255Z,196.85
2023-05-14T14:28:49.483Z,173.93
2023-05-14T14:31:16.697Z,150.15
2023-05-14T14:33:44.693Z,129.13
2023-05-14T14:36:10.927Z,118.93
2023-05-14T14:38:37.150Z,129.35
2023-05-14T14:41:04.047Z,127.78
2023-05-14T14:43:33.018Z,113.65
2023-05-14T14:45:59.247Z,106.55
2023-05-14T14:48:27.876Z,96.55
2023-05-14T14:50:57.834Z,101.35
2023-05-14T14:53:28.824Z,84.70
2023-05-14T14:55:55.134Z,89.00
2023-05-14T14:58:21.401Z,85.03
2023-05-14T15:00:47.750Z,92.53
2023-05-14T15:03:15.442Z,87.50
2023-05-14T15:05:46.813Z,88.72
2023-05-14T15:08:13.011Z,87.85
2023-05-14T15:10:39.283Z,89.93
2023-05-14T15:13:05.493Z,85.63
2023-05-14T15:15:31.719Z,85.78
2023-05-14T15:17:58.011Z,82.45
2023-05-14T15:20:24.278Z,79.95
2023-05-14T15:22:50.518Z,78.32
2023-05-14T15:25:17.015Z,76.28
2023-05-14T15:27:43.738Z,75.20
2023-05-14T15:30:10.002Z,74.18
2023-05-14T15:32:36.320Z,72.57
2023-05-14T15:35:04.068Z,70.75
2023-05-14T15:37:31.619Z,70.05
2023-05-14T15:39:58.220Z,71.28
2023-05-14T15:42:24.470Z,67.18
2023-05-14T15:44:50.699Z,64.68
2023-05-14T15:47:17.001Z,60.70
2023-05-14T15:49:43.232Z,61.25
2023-05-14T15:52:09.455Z,61.78
2023-05-14T15:54:35.672Z,57.80
2023-05-14T15:57:04.536Z,56.38
2023-05-14T15:59:33.061Z,54.97
2023-05-14T16:01:59.339Z,51.20
2023-05-14T16:04:26.303Z,52.25
2023-05-14T16:06:52.606Z,49.72
2023-05-14T16:09:19.020Z,48.10
2023-05-14T16:11:45.231Z,47.67
2023-05-14T16:14:12.778Z,46.55
2023-05-14T16:16:39.345Z,43.75
2023-05-14T16:19:05.773Z,45.15
2023-05-14T16:21:34.169Z,42.10
2023-05-14T16:24:00.365Z,40.97
2023-05-14T16:26:26.626Z,41.13
2023-05-14T16:28:53.039Z,42.75
2023-05-14T16:31:19.282Z,39.17
2023-05-14T16:33:45.507Z,38.42
2023-05-14T16:36:11.753Z,37.13
2023-05-14T16:38:52.396Z,36.90
2023-05-14T16:41:26.944Z,36.55
2023-05-14T16:43:53.230Z,35.28
2023-05-14T16:46:19.476Z,34.60
2023-05-14T16:48:48.409Z,34.00
2023-05-14T16:51:15.267Z,34.50
2023-05-14T16:53:41.657Z,32.85
2023-05-14T16:56:08.911Z,31.10
2023-05-14T16:58:38.880Z,31.25
2023-05-14T17:01:10.768Z,31.77
2023-05-14T17:03:37.963Z,31.77
2023-05-14T17:06:04.210Z,31.00
2023-05-14T17:08:30.473Z,29.33
2023-05-14T17:10:58.455Z,31.17
2023-05-14T17:13:24.661Z,29.63
2023-05-14T17:15:50.929Z,28.83
2023-05-14T17:18:17.847Z,27.98
2023-05-14T17:20:44.131Z,27.30
2023-05-14T17:23:12.049Z,27.05
2023-05-14T17:25:38.374Z,26.58
2023-05-14T17:28:04.606Z,26.17
2023-05-14T17:30:30.794Z,26.52
2023-05-14T17:32:57.291Z,24.75
2023-05-14T17:35:23.805Z,25.02
2023-05-14T17:37:52.317Z,25.15
2023-05-14T17:40:18.552Z,25.08
2023-05-14T17:42:44.808Z,25.25
2023-05-14T17:45:11.016Z,24.83
2023-05-14T17:47:37.322Z,25.73
2023-05-14T17:50:04.543Z,24.90
2023-05-14T17:52:32.700Z,25.00
2023-05-14T17:55:00.194Z,25.33
2023-05-14T17:57:26.522Z,24.42
2023-05-14T17:59:52.825Z,24.40
2023-05-14T18:02:21.150Z,24.52
2023-05-14T18:04:47.544Z,24.08
2023-05-14T18:07:13.778Z,23.55
2023-05-14T18:09:40.033Z,24.25
2023-05-14T18:12:06.247Z,24.23
2023-05-14T18:14:32.526Z,24.13
2023-05-14T18:17:02.285Z,23.27
2023-05-14T18:19:28.535Z,24.15
2023-05-14T18:21:54.747Z,23.35
2023-05-14T18:24:21.077Z,22.70
2023-05-14T18:26:47.312Z,23.50
2023-05-14T18:29:14.868Z,22.90
2023-05-14T18:31:43.313Z,23.50
2023-05-14T18:34:09.644Z,21.95
2023-05-14T18:36:35.906Z,23.10
2023-05-14T18:39:02.127Z,21.33
2023-05-14T18:41:28.330Z,22.90
2023-05-14T18:43:54.553Z,22.20
2023-05-14T18:46:20.917Z,21.98
2023-05-14T18:48:47.198Z,22.17
2023-05-14T18:51:13.615Z,21.45
2023-05-14T18:53:43.325Z,21.83
2023-05-14T18:56:10.737Z,21.80
2023-05-14T18:58:38.668Z,21.70
2023-05-14T19:01:04.963Z,21.35
2023-05-14T19:03:33.744Z,21.08
2023-05-14T19:06:03.419Z,21.23
2023-05-14T19:08:32.713Z,21.05
2023-05-14T19:10:58.945Z,20.52
2023-05-14T19:13:25.464Z,20.08
2023-05-14T19:15:51.703Z,21.52
2023-05-14T19:18:20.557Z,21.10
2023-05-14T19:20:46.855Z,21.35
2023-05-14T19:23:15.248Z,21.20
2023-05-14T19:25:41.503Z,20.23
2023-05-14T19:28:08.551Z,20.88
2023-05-14T19:30:34.790Z,19.60
2023-05-14T19:33:01.541Z,20.02
2023-05-14T19:35:27.861Z,20.63
2023-05-14T19:37:54.196Z,20.83
2023-05-14T19:40:23.078Z,20.25
2023-05-14T19:42:49.374Z,19.50
2023-05-14T19:45:15.591Z,19.65
2023-05-14T19:47:41.872Z,19.15
2023-05-14T19:50:08.080Z,19.83
2023-05-14T19:52:34.324Z,18.85
2023-05-14T19:55:00.552Z,18.92
2023-05-14T19:57:27.855Z,18.67
2023-05-14T19:59:54.077Z,18.40
2023-05-14T20:02:20.325Z,18.08
2023-05-14T20:04:46.654Z,18.65
2023-05-14T20:07:12.881Z,17.60
2023-05-14T20:09:39.368Z,18.17
2023-05-14T20:12:05.612Z,18.23
2023-05-14T20:14:31.958Z,17.60
2023-05-14T20:16:58.228Z,15.73
2023-05-14T20:19:24.533Z,16.65
2023-05-14T20:21:50.900Z,17.33
2023-05-14T20:24:17.309Z,16.25
2023-05-14T20:26:43.630Z,16.65
2023-05-14T20:29:11.535Z,16.45
2023-05-14T20:31:37.752Z,16.42
2023-05-14T20:34:03.993Z,16.00
2023-05-14T20:36:30.267Z,15.13
2023-05-14T20:39:00.919Z,15.90
2023-05-14T20:41:27.356Z,15.55
2023-05-14T20:43:53.573Z,14.80
2023-05-14T20:46:21.905Z,14.98
2023-05-14T20:48:48.220Z,16.35
2023-05-14T20:51:14.744Z,14.60
2023-05-14T20:53:43.839Z,14.80
2023-05-14T20:56:10.093Z,14.65
2023-05-14T20:58:36.290Z,14.90
2023-05-14T21:01:02.754Z,14.65
2023-05-14T21:03:29.116Z,15.60
2023-05-14T21:06:00.293Z,15.13
2023-05-14T21:08:27.771Z,14.88
2023-05-14T21:10:53.993Z,15.23
2023-05-14T21:13:20.236Z,15.43
2023-05-14T21:15:46.459Z,14.57
2023-05-14T21:18:14.107Z,14.57
2023-05-14T21:20:40.403Z,14.85
2023-05-14T21:23:06.861Z,14.25
2023-05-14T21:25:34.202Z,13.43
2023-05-14T21:28:00.494Z,13.95
2023-05-14T21:30:26.772Z,13.57
2023-05-14T21:32:53.117Z,13.50
2023-05-14T21:35:22.895Z,14.00
2023-05-14T21:37:50.750Z,13.98
2023-05-14T21:40:16.979Z,13.35
2023-05-14T21:42:43.194Z,13.73
2023-05-14T21:45:12.076Z,14.05
2023-05-14T21:47:38.497Z,13.40
2023-05-14T21:50:08.368Z,13.35
2023-05-14T21:52:34.654Z,13.63
2023-05-14T21:55:00.854Z,13.02
2023-05-14T21:57:28.371Z,13.70
2023-05-14T21:59:56.019Z,13.40
2023-05-14T22:02:22.432Z,13.18
2023-05-14T22:04:48.700Z,13.13
2023-05-14T22:07:14.984Z,13.25
2023-05-14T22:09:41.353Z,13.18
2023-05-14T22:12:07.626Z,12.73
2023-05-14T22:14:35.567Z,12.15
2023-05-14T22:17:01.839Z,13.13
2023-05-14T22:19:30.224Z,12.18
2023-05-14T22:21:56.447Z,13.60
2023-05-14T22:24:25.690Z,13.00
2023-05-14T22:26:51.940Z,12.18
2023-05-14T22:29:18.186Z,12.60
2023-05-14T22:31:45.849Z,12.90
2023-05-14T22:34:12.154Z,12.43
2023-05-14T22:36:38.544Z,12.45
2023-05-14T22:39:04.871Z,12.70
2023-05-14T22:41:31.839Z,12.25
2023-05-14T22:43:58.153Z,12.18
2023-05-14T22:46:26.857Z,11.88
2023-05-14T22:48:53.406Z,12.35
2023-05-14T22:51:19.602Z,12.20
2023-05-14T22:53:45.804Z,11.93
2023-05-14T22:56:12.002Z,11.93
2023-05-14T22:58:38.252Z,12.25
2023-05-14T23:01:07.479Z,12.55
2023-05-14T23:03:33.719Z,12.70
2023-05-14T23:06:01.609Z,11.40
2023-05-14T23:08:30.855Z,11.52
2023-05-14T23:10:57.068Z,11.30
2023-05-14T23:13:23.281Z,10.77
2023-05-14T23:15:49.656Z,10.85
2023-05-14T23:18:16.040Z,12.02
2023-05-14T23:20:42.355Z,12.00
2023-05-14T23:23:14.663Z,12.10
2023-05-14T23:25:40.893Z,11.18
2023-05-14T23:28:07.779Z,11.70
2023-05-14T23:30:34.083Z,10.55
2023-05-14T23:33:05.324Z,11.73
2023-05-14T23:35:31.603Z,11.43
2023-05-14T23:37:59.171Z,11.23
2023-05-14T23:40:25.974Z,11.07
2023-05-14T23:42:54.172Z,10.57
2023-05-14T23:45:25.166Z,12.13
2023-05-14T23:47:51.741Z,10.75
2023-05-14T23:50:18.143Z,11.48
2023-05-14T23:52:45.502Z,11.63
2023-05-14T23:55:11.774Z,11.70
2023-05-14T23:57:38.001Z,11.50
